sensor_id;sensor_type;location;lat;lon;timestamp;P1;durP1;ratioP1;P2;durP2;ratioP2
65328;SDS011;51941;52.210;5.158;2022-11-28T00:00:43;11.38;;;7.60;;
65328;SDS011;51941;52.210;5.158;2022-11-28T00:03:09;6.45;;;5.15;;
65328;SDS011;51941;52.210;5.158;2022-11-28T00:05:36;7.75;;;5.55;;
65328;SDS011;51941;52.210;5.158;2022-11-28T00:08:04;8.45;;;5.60;;
65328;SDS011;51941;52.210;5.158;2022-11-28T00:10:31;8.00;;;5.43;;
65328;SDS011;51941;52.210;5.158;2022-11-28T00:12:58;7.45;;;5.40;;
65328;SDS011;51941;52.210;5.158;2022-11-28T00:15:24;6.97;;;5.55;;
65328;SDS011;51941;52.210;5.158;2022-11-28T00:17:51;9.20;;;6.05;;
65328;SDS011;51941;52.210;5.158;2022-11-28T00:20:18;11.55;;;6.90;;
65328;SDS011;51941;52.210;5.158;2022-11-28T00:22:45;9.55;;;5.70;;
65328;SDS011;51941;52.210;5.158;2022-11-28T00:25:13;12.00;;;5.90;;
65328;SDS011;51941;52.210;5.158;2022-11-28T00:27:40;8.65;;;5.45;;
65328;SDS011;51941;52.210;5.158;2022-11-28T00:30:07;7.82;;;5.82;;
65328;SDS011;51941;52.210;5.158;2022-11-28T00:32:34;7.93;;;5.75;;
65328;SDS011;51941;52.210;5.158;2022-11-28T00:35:01;8.00;;;6.05;;
65328;SDS011;51941;52.210;5.158;2022-11-28T00:37:28;8.52;;;5.65;;
65328;SDS011;51941;52.210;5.158;2022-11-28T00:39:54;9.57;;;6.45;;
65328;SDS011;51941;52.210;5.158;2022-11-28T00:42:22;10.18;;;6.68;;
65328;SDS011;51941;52.210;5.158;2022-11-28T00:44:49;9.57;;;5.70;;
65328;SDS011;51941;52.210;5.158;2022-11-28T00:47:16;8.52;;;5.45;;
65328;SDS011;51941;52.210;5.158;2022-11-28T00:49:43;6.22;;;4.75;;
65328;SDS011;51941;52.210;5.158;2022-11-28T00:52:09;8.60;;;4.50;;
65328;SDS011;51941;52.210;5.158;2022-11-28T00:54:36;7.68;;;5.30;;
65328;SDS011;51941;52.210;5.158;2022-11-28T00:57:03;8.00;;;4.90;;
65328;SDS011;51941;52.210;5.158;2022-11-28T00:59:31;7.93;;;5.10;;
65328;SDS011;51941;52.210;5.158;2022-11-28T01:01:58;7.75;;;5.68;;
65328;SDS011;51941;52.210;5.158;2022-11-28T01:04:24;10.00;;;5.70;;
65328;SDS011;51941;52.210;5.158;2022-11-28T01:06:52;9.25;;;6.30;;
65328;SDS011;51941;52.210;5.158;2022-11-28T01:09:22;8.67;;;5.80;;
65328;SDS011;51941;52.210;5.158;2022-11-28T01:11:50;11.18;;;6.55;;
65328;SDS011;51941;52.210;5.158;2022-11-28T01:14:18;7.82;;;6.20;;
65328;SDS011;51941;52.210;5.158;2022-11-28T01:16:47;7.45;;;6.15;;
65328;SDS011;51941;52.210;5.158;2022-11-28T01:19:14;6.65;;;5.32;;
65328;SDS011;51941;52.210;5.158;2022-11-28T01:21:41;6.32;;;5.05;;
65328;SDS011;51941;52.210;5.158;2022-11-28T01:24:08;7.75;;;6.15;;
65328;SDS011;51941;52.210;5.158;2022-11-28T01:26:36;9.25;;;6.05;;
65328;SDS011;51941;52.210;5.158;2022-11-28T01:29:04;6.57;;;5.03;;
65328;SDS011;51941;52.210;5.158;2022-11-28T01:31:32;7.50;;;5.65;;
65328;SDS011;51941;52.210;5.158;2022-11-28T01:34:00;5.55;;;4.90;;
65328;SDS011;51941;52.210;5.158;2022-11-28T01:36:27;8.60;;;5.82;;
65328;SDS011;51941;52.210;5.158;2022-11-28T01:38:54;9.13;;;6.85;;
65328;SDS011;51941;52.210;5.158;2022-11-28T01:41:22;6.78;;;6.00;;
65328;SDS011;51941;52.210;5.158;2022-11-28T01:44:01;6.68;;;6.05;;
65328;SDS011;51941;52.210;5.158;2022-11-28T01:46:31;7.65;;;6.20;;
65328;SDS011;51941;52.210;5.158;2022-11-28T01:49:00;9.73;;;7.07;;
65328;SDS011;51941;52.210;5.158;2022-11-28T01:51:30;8.45;;;6.72;;
65328;SDS011;51941;52.210;5.158;2022-11-28T01:53:58;6.57;;;5.65;;
65328;SDS011;51941;52.210;5.158;2022-11-28T01:56:26;5.85;;;5.25;;
65328;SDS011;51941;52.210;5.158;2022-11-28T01:58:56;8.60;;;6.10;;
65328;SDS011;51941;52.210;5.158;2022-11-28T02:01:27;5.88;;;5.20;;
65328;SDS011;51941;52.210;5.158;2022-11-28T02:03:54;5.80;;;5.20;;
65328;SDS011;51941;52.210;5.158;2022-11-28T02:06:25;5.45;;;4.93;;
65328;SDS011;51941;52.210;5.158;2022-11-28T02:08:53;5.53;;;5.03;;
65328;SDS011;51941;52.210;5.158;2022-11-28T02:14:37;6.75;;;5.88;;
65328;SDS011;51941;52.210;5.158;2022-11-28T02:17:15;5.85;;;5.25;;
65328;SDS011;51941;52.210;5.158;2022-11-28T02:23:04;5.63;;;4.65;;
65328;SDS011;51941;52.210;5.158;2022-11-28T02:31:59;4.82;;;4.32;;
65328;SDS011;51941;52.210;5.158;2022-11-28T02:34:45;5.20;;;4.60;;
65328;SDS011;51941;52.210;5.158;2022-11-28T02:37:21;5.28;;;4.10;;
65328;SDS011;51941;52.210;5.158;2022-11-28T02:39:57;3.95;;;3.20;;
65328;SDS011;51941;52.210;5.158;2022-11-28T02:42:34;3.40;;;3.10;;
65328;SDS011;51941;52.210;5.158;2022-11-28T02:45:12;4.40;;;4.03;;
65328;SDS011;51941;52.210;5.158;2022-11-28T02:47:48;3.40;;;3.10;;
65328;SDS011;51941;52.210;5.158;2022-11-28T02:50:21;3.30;;;3.10;;
65328;SDS011;51941;52.210;5.158;2022-11-28T02:52:52;4.07;;;3.70;;
65328;SDS011;51941;52.210;5.158;2022-11-28T02:55:21;3.10;;;2.90;;
65328;SDS011;51941;52.210;5.158;2022-11-28T02:57:50;4.50;;;4.15;;
65328;SDS011;51941;52.210;5.158;2022-11-28T03:00:22;3.70;;;3.17;;
65328;SDS011;51941;52.210;5.158;2022-11-28T03:02:58;4.28;;;3.95;;
65328;SDS011;51941;52.210;5.158;2022-11-28T03:05:40;4.68;;;4.28;;
65328;SDS011;51941;52.210;5.158;2022-11-28T03:08:16;4.53;;;4.10;;
65328;SDS011;51941;52.210;5.158;2022-11-28T03:10:53;3.72;;;3.42;;
65328;SDS011;51941;52.210;5.158;2022-11-28T03:13:30;4.15;;;3.83;;
65328;SDS011;51941;52.210;5.158;2022-11-28T03:16:10;4.25;;;3.85;;
65328;SDS011;51941;52.210;5.158;2022-11-28T03:18:47;6.53;;;4.80;;
65328;SDS011;51941;52.210;5.158;2022-11-28T03:21:24;4.50;;;4.07;;
65328;SDS011;51941;52.210;5.158;2022-11-28T03:23:59;3.92;;;3.55;;
65328;SDS011;51941;52.210;5.158;2022-11-28T03:26:32;4.50;;;4.10;;
65328;SDS011;51941;52.210;5.158;2022-11-28T03:29:06;5.13;;;4.63;;
65328;SDS011;51941;52.210;5.158;2022-11-28T03:31:39;4.05;;;3.65;;
65328;SDS011;51941;52.210;5.158;2022-11-28T03:34:13;5.05;;;4.55;;
65328;SDS011;51941;52.210;5.158;2022-11-28T03:36:43;5.07;;;4.65;;
65328;SDS011;51941;52.210;5.158;2022-11-28T03:39:14;6.22;;;5.45;;
65328;SDS011;51941;52.210;5.158;2022-11-28T03:41:46;5.65;;;5.15;;
65328;SDS011;51941;52.210;5.158;2022-11-28T03:44:17;5.05;;;4.65;;
65328;SDS011;51941;52.210;5.158;2022-11-28T03:46:50;6.18;;;5.57;;
65328;SDS011;51941;52.210;5.158;2022-11-28T03:49:21;5.30;;;4.80;;
65328;SDS011;51941;52.210;5.158;2022-11-28T03:51:54;6.57;;;5.95;;
65328;SDS011;51941;52.210;5.158;2022-11-28T03:54:23;7.07;;;6.35;;
65328;SDS011;51941;52.210;5.158;2022-11-28T03:56:56;6.57;;;5.97;;
65328;SDS011;51941;52.210;5.158;2022-11-28T03:59:29;6.15;;;5.60;;
65328;SDS011;51941;52.210;5.158;2022-11-28T04:02:01;11.10;;;6.63;;
65328;SDS011;51941;52.210;5.158;2022-11-28T04:04:34;8.85;;;7.88;;
65328;SDS011;51941;52.210;5.158;2022-11-28T04:07:07;8.05;;;7.35;;
65328;SDS011;51941;52.210;5.158;2022-11-28T04:09:45;7.93;;;7.15;;
65328;SDS011;51941;52.210;5.158;2022-11-28T04:12:16;8.25;;;6.82;;
65328;SDS011;51941;52.210;5.158;2022-11-28T04:14:48;7.65;;;6.85;;
65328;SDS011;51941;52.210;5.158;2022-11-28T04:17:20;11.20;;;7.22;;
65328;SDS011;51941;52.210;5.158;2022-11-28T04:19:54;10.75;;;8.18;;
65328;SDS011;51941;52.210;5.158;2022-11-28T04:22:29;10.20;;;8.27;;
65328;SDS011;51941;52.210;5.158;2022-11-28T04:25:00;8.23;;;7.30;;
65328;SDS011;51941;52.210;5.158;2022-11-28T04:27:32;11.15;;;8.45;;
65328;SDS011;51941;52.210;5.158;2022-11-28T04:30:03;10.85;;;8.48;;
65328;SDS011;51941;52.210;5.158;2022-11-28T04:32:33;14.57;;;10.23;;
65328;SDS011;51941;52.210;5.158;2022-11-28T04:35:07;11.07;;;9.25;;
65328;SDS011;51941;52.210;5.158;2022-11-28T04:37:37;10.30;;;8.98;;
65328;SDS011;51941;52.210;5.158;2022-11-28T04:40:06;11.18;;;9.48;;
65328;SDS011;51941;52.210;5.158;2022-11-28T04:42:36;14.95;;;10.05;;
65328;SDS011;51941;52.210;5.158;2022-11-28T04:45:08;10.38;;;9.13;;
65328;SDS011;51941;52.210;5.158;2022-11-28T04:47:38;12.32;;;10.40;;
65328;SDS011;51941;52.210;5.158;2022-11-28T04:50:07;11.65;;;9.30;;
65328;SDS011;51941;52.210;5.158;2022-11-28T04:52:36;12.32;;;9.60;;
65328;SDS011;51941;52.210;5.158;2022-11-28T04:55:09;15.90;;;11.93;;
65328;SDS011;51941;52.210;5.158;2022-11-28T04:57:43;13.95;;;11.45;;
65328;SDS011;51941;52.210;5.158;2022-11-28T05:00:14;17.65;;;12.63;;
65328;SDS011;51941;52.210;5.158;2022-11-28T05:02:43;17.02;;;13.13;;
65328;SDS011;51941;52.210;5.158;2022-11-28T05:05:15;14.02;;;11.13;;
65328;SDS011;51941;52.210;5.158;2022-11-28T05:07:43;13.68;;;10.73;;
65328;SDS011;51941;52.210;5.158;2022-11-28T05:10:11;14.77;;;11.10;;
65328;SDS011;51941;52.210;5.158;2022-11-28T05:12:38;17.63;;;12.82;;
65328;SDS011;51941;52.210;5.158;2022-11-28T05:15:05;13.27;;;10.82;;
65328;SDS011;51941;52.210;5.158;2022-11-28T05:17:33;12.48;;;9.27;;
65328;SDS011;51941;52.210;5.158;2022-11-28T05:20:00;14.07;;;10.48;;
65328;SDS011;51941;52.210;5.158;2022-11-28T05:22:28;13.95;;;10.10;;
65328;SDS011;51941;52.210;5.158;2022-11-28T05:24:55;12.48;;;9.77;;
65328;SDS011;51941;52.210;5.158;2022-11-28T05:27:21;16.88;;;11.70;;
65328;SDS011;51941;52.210;5.158;2022-11-28T05:29:48;11.48;;;9.73;;
65328;SDS011;51941;52.210;5.158;2022-11-28T05:32:15;12.50;;;10.00;;
65328;SDS011;51941;52.210;5.158;2022-11-28T05:34:42;14.10;;;10.00;;
65328;SDS011;51941;52.210;5.158;2022-11-28T05:37:08;12.70;;;10.02;;
65328;SDS011;51941;52.210;5.158;2022-11-28T05:39:37;14.10;;;10.02;;
65328;SDS011;51941;52.210;5.158;2022-11-28T05:42:03;16.60;;;10.88;;
65328;SDS011;51941;52.210;5.158;2022-11-28T05:44:30;14.73;;;9.90;;
65328;SDS011;51941;52.210;5.158;2022-11-28T05:46:57;13.23;;;9.82;;
65328;SDS011;51941;52.210;5.158;2022-11-28T05:49:24;14.57;;;10.55;;
65328;SDS011;51941;52.210;5.158;2022-11-28T05:51:51;15.68;;;11.52;;
65328;SDS011;51941;52.210;5.158;2022-11-28T05:54:17;16.02;;;10.82;;
65328;SDS011;51941;52.210;5.158;2022-11-28T05:56:45;13.77;;;9.77;;
65328;SDS011;51941;52.210;5.158;2022-11-28T05:59:12;13.77;;;10.15;;
65328;SDS011;51941;52.210;5.158;2022-11-28T06:01:39;12.98;;;9.07;;
65328;SDS011;51941;52.210;5.158;2022-11-28T06:04:06;12.93;;;9.25;;
65328;SDS011;51941;52.210;5.158;2022-11-28T06:06:35;10.57;;;8.35;;
65328;SDS011;51941;52.210;5.158;2022-11-28T06:09:03;14.23;;;10.43;;
65328;SDS011;51941;52.210;5.158;2022-11-28T06:11:31;11.82;;;9.35;;
65328;SDS011;51941;52.210;5.158;2022-11-28T06:14:00;12.23;;;9.38;;
65328;SDS011;51941;52.210;5.158;2022-11-28T06:16:28;17.77;;;10.75;;
65328;SDS011;51941;52.210;5.158;2022-11-28T06:18:56;17.38;;;11.88;;
65328;SDS011;51941;52.210;5.158;2022-11-28T06:21:24;13.45;;;10.15;;
65328;SDS011;51941;52.210;5.158;2022-11-28T06:23:51;15.00;;;10.27;;
65328;SDS011;51941;52.210;5.158;2022-11-28T06:26:19;12.38;;;9.23;;
65328;SDS011;51941;52.210;5.158;2022-11-28T06:28:47;11.03;;;8.47;;
65328;SDS011;51941;52.210;5.158;2022-11-28T06:31:17;13.50;;;9.73;;
65328;SDS011;51941;52.210;5.158;2022-11-28T06:33:45;13.25;;;8.90;;
65328;SDS011;51941;52.210;5.158;2022-11-28T06:36:12;10.85;;;7.88;;
65328;SDS011;51941;52.210;5.158;2022-11-28T06:38:40;11.23;;;8.52;;
65328;SDS011;51941;52.210;5.158;2022-11-28T06:41:09;10.60;;;8.50;;
65328;SDS011;51941;52.210;5.158;2022-11-28T06:43:39;14.40;;;11.43;;
65328;SDS011;51941;52.210;5.158;2022-11-28T06:46:09;12.75;;;9.60;;
65328;SDS011;51941;52.210;5.158;2022-11-28T06:48:38;12.63;;;8.93;;
65328;SDS011;51941;52.210;5.158;2022-11-28T06:51:05;12.15;;;8.60;;
65328;SDS011;51941;52.210;5.158;2022-11-28T06:53:33;10.88;;;7.85;;
65328;SDS011;51941;52.210;5.158;2022-11-28T06:56:03;10.90;;;8.27;;
65328;SDS011;51941;52.210;5.158;2022-11-28T06:58:30;11.27;;;9.27;;
65328;SDS011;51941;52.210;5.158;2022-11-28T07:01:03;12.48;;;9.88;;
65328;SDS011;51941;52.210;5.158;2022-11-28T07:03:31;15.73;;;10.45;;
65328;SDS011;51941;52.210;5.158;2022-11-28T07:06:00;12.70;;;9.77;;
65328;SDS011;51941;52.210;5.158;2022-11-28T07:08:26;12.68;;;9.30;;
65328;SDS011;51941;52.210;5.158;2022-11-28T07:10:53;12.93;;;9.50;;
65328;SDS011;51941;52.210;5.158;2022-11-28T07:13:21;13.80;;;9.52;;
65328;SDS011;51941;52.210;5.158;2022-11-28T07:15:49;16.05;;;10.82;;
65328;SDS011;51941;52.210;5.158;2022-11-28T07:18:16;15.02;;;11.07;;
65328;SDS011;51941;52.210;5.158;2022-11-28T07:20:43;12.95;;;9.95;;
65328;SDS011;51941;52.210;5.158;2022-11-28T07:23:12;13.18;;;9.57;;
65328;SDS011;51941;52.210;5.158;2022-11-28T07:25:38;14.43;;;10.77;;
65328;SDS011;51941;52.210;5.158;2022-11-28T07:28:05;15.88;;;11.45;;
65328;SDS011;51941;52.210;5.158;2022-11-28T07:30:32;16.58;;;12.15;;
65328;SDS011;51941;52.210;5.158;2022-11-28T07:32:59;15.20;;;10.63;;
65328;SDS011;51941;52.210;5.158;2022-11-28T07:35:25;16.80;;;12.00;;
65328;SDS011;51941;52.210;5.158;2022-11-28T07:37:52;19.02;;;11.73;;
65328;SDS011;51941;52.210;5.158;2022-11-28T07:40:20;18.60;;;12.52;;
65328;SDS011;51941;52.210;5.158;2022-11-28T07:42:47;17.48;;;11.80;;
65328;SDS011;51941;52.210;5.158;2022-11-28T07:45:14;19.35;;;12.85;;
65328;SDS011;51941;52.210;5.158;2022-11-28T07:47:40;16.85;;;11.27;;
65328;SDS011;51941;52.210;5.158;2022-11-28T07:50:07;18.70;;;11.55;;
65328;SDS011;51941;52.210;5.158;2022-11-28T07:52:34;16.88;;;12.38;;
65328;SDS011;51941;52.210;5.158;2022-11-28T07:55:01;19.45;;;13.07;;
65328;SDS011;51941;52.210;5.158;2022-11-28T07:57:29;16.63;;;10.88;;
65328;SDS011;51941;52.210;5.158;2022-11-28T07:59:56;19.55;;;12.43;;
65328;SDS011;51941;52.210;5.158;2022-11-28T08:02:23;15.23;;;10.93;;
65328;SDS011;51941;52.210;5.158;2022-11-28T08:04:51;16.77;;;11.15;;
65328;SDS011;51941;52.210;5.158;2022-11-28T08:07:17;16.40;;;11.23;;
65328;SDS011;51941;52.210;5.158;2022-11-28T08:09:44;16.98;;;11.00;;
65328;SDS011;51941;52.210;5.158;2022-11-28T08:12:11;19.15;;;11.93;;
65328;SDS011;51941;52.210;5.158;2022-11-28T08:14:39;17.33;;;11.43;;
65328;SDS011;51941;52.210;5.158;2022-11-28T08:17:06;16.45;;;11.90;;
65328;SDS011;51941;52.210;5.158;2022-11-28T08:19:34;18.55;;;11.90;;
65328;SDS011;51941;52.210;5.158;2022-11-28T08:22:01;19.13;;;13.07;;
65328;SDS011;51941;52.210;5.158;2022-11-28T08:24:27;20.20;;;12.73;;
65328;SDS011;51941;52.210;5.158;2022-11-28T08:26:54;20.08;;;12.27;;
65328;SDS011;51941;52.210;5.158;2022-11-28T08:29:21;18.60;;;12.02;;
65328;SDS011;51941;52.210;5.158;2022-11-28T08:31:49;20.17;;;12.55;;
65328;SDS011;51941;52.210;5.158;2022-11-28T08:34:16;23.35;;;13.02;;
65328;SDS011;51941;52.210;5.158;2022-11-28T08:36:42;23.65;;;14.75;;
65328;SDS011;51941;52.210;5.158;2022-11-28T08:39:11;20.45;;;13.48;;
65328;SDS011;51941;52.210;5.158;2022-11-28T08:41:38;21.77;;;14.52;;
65328;SDS011;51941;52.210;5.158;2022-11-28T08:44:04;23.70;;;14.73;;
65328;SDS011;51941;52.210;5.158;2022-11-28T08:46:31;25.10;;;14.48;;
65328;SDS011;51941;52.210;5.158;2022-11-28T08:49:00;27.83;;;16.10;;
65328;SDS011;51941;52.210;5.158;2022-11-28T08:51:26;23.13;;;14.45;;
65328;SDS011;51941;52.210;5.158;2022-11-28T08:53:54;21.30;;;13.10;;
65328;SDS011;51941;52.210;5.158;2022-11-28T08:56:21;24.48;;;15.27;;
65328;SDS011;51941;52.210;5.158;2022-11-28T08:58:48;25.38;;;14.68;;
65328;SDS011;51941;52.210;5.158;2022-11-28T09:01:15;27.30;;;15.45;;
65328;SDS011;51941;52.210;5.158;2022-11-28T09:03:44;23.60;;;14.63;;
65328;SDS011;51941;52.210;5.158;2022-11-28T09:06:12;33.20;;;18.00;;
65328;SDS011;51941;52.210;5.158;2022-11-28T09:08:40;33.97;;;16.85;;
65328;SDS011;51941;52.210;5.158;2022-11-28T09:11:08;29.13;;;16.17;;
65328;SDS011;51941;52.210;5.158;2022-11-28T09:14:15;28.50;;;16.02;;
65328;SDS011;51941;52.210;5.158;2022-11-28T09:16:45;25.58;;;14.73;;
65328;SDS011;51941;52.210;5.158;2022-11-28T09:19:22;28.30;;;15.68;;
65328;SDS011;51941;52.210;5.158;2022-11-28T09:21:51;29.17;;;15.57;;
65328;SDS011;51941;52.210;5.158;2022-11-28T09:24:17;29.67;;;14.55;;
65328;SDS011;51941;52.210;5.158;2022-11-28T09:26:44;26.30;;;14.10;;
65328;SDS011;51941;52.210;5.158;2022-11-28T09:29:11;24.58;;;13.60;;
65328;SDS011;51941;52.210;5.158;2022-11-28T09:31:37;29.67;;;15.65;;
65328;SDS011;51941;52.210;5.158;2022-11-28T09:34:04;35.25;;;17.67;;
65328;SDS011;51941;52.210;5.158;2022-11-28T09:36:31;32.60;;;15.68;;
65328;SDS011;51941;52.210;5.158;2022-11-28T09:38:59;30.33;;;16.35;;
65328;SDS011;51941;52.210;5.158;2022-11-28T09:41:28;31.40;;;17.37;;
65328;SDS011;51941;52.210;5.158;2022-11-28T09:44:06;38.15;;;17.70;;
65328;SDS011;51941;52.210;5.158;2022-11-28T09:46:35;32.45;;;17.13;;
65328;SDS011;51941;52.210;5.158;2022-11-28T09:49:08;31.80;;;15.75;;
65328;SDS011;51941;52.210;5.158;2022-11-28T09:51:48;32.42;;;15.77;;
65328;SDS011;51941;52.210;5.158;2022-11-28T09:54:20;32.67;;;15.95;;
65328;SDS011;51941;52.210;5.158;2022-11-28T09:56:53;35.40;;;17.20;;
65328;SDS011;51941;52.210;5.158;2022-11-28T09:59:22;31.67;;;15.60;;
65328;SDS011;51941;52.210;5.158;2022-11-28T10:01:53;33.00;;;15.82;;
65328;SDS011;51941;52.210;5.158;2022-11-28T10:04:30;32.85;;;16.00;;
65328;SDS011;51941;52.210;5.158;2022-11-28T10:07:07;29.77;;;14.63;;
65328;SDS011;51941;52.210;5.158;2022-11-28T10:09:46;32.13;;;15.35;;
65328;SDS011;51941;52.210;5.158;2022-11-28T10:12:31;35.58;;;16.55;;
65328;SDS011;51941;52.210;5.158;2022-11-28T10:15:14;34.08;;;16.20;;
65328;SDS011;51941;52.210;5.158;2022-11-28T10:17:48;32.92;;;16.88;;
65328;SDS011;51941;52.210;5.158;2022-11-28T10:20:26;34.13;;;16.92;;
65328;SDS011;51941;52.210;5.158;2022-11-28T10:22:59;34.95;;;17.55;;
65328;SDS011;51941;52.210;5.158;2022-11-28T10:25:38;31.75;;;16.52;;
65328;SDS011;51941;52.210;5.158;2022-11-28T10:28:10;34.20;;;15.23;;
65328;SDS011;51941;52.210;5.158;2022-11-28T10:30:41;32.58;;;16.42;;
65328;SDS011;51941;52.210;5.158;2022-11-28T10:33:16;39.85;;;17.63;;
65328;SDS011;51941;52.210;5.158;2022-11-28T10:35:49;40.10;;;19.25;;
65328;SDS011;51941;52.210;5.158;2022-11-28T10:38:19;35.13;;;16.52;;
65328;SDS011;51941;52.210;5.158;2022-11-28T10:40:53;33.30;;;14.77;;
65328;SDS011;51941;52.210;5.158;2022-11-28T10:43:29;32.90;;;16.02;;
65328;SDS011;51941;52.210;5.158;2022-11-28T10:46:04;33.15;;;16.08;;
65328;SDS011;51941;52.210;5.158;2022-11-28T10:48:45;39.38;;;17.88;;
65328;SDS011;51941;52.210;5.158;2022-11-28T10:51:19;40.72;;;19.92;;
65328;SDS011;51941;52.210;5.158;2022-11-28T10:53:58;38.83;;;19.60;;
65328;SDS011;51941;52.210;5.158;2022-11-28T10:59:20;38.80;;;17.52;;
65328;SDS011;51941;52.210;5.158;2022-11-28T11:05:16;31.58;;;15.65;;
65328;SDS011;51941;52.210;5.158;2022-11-28T11:07:47;32.88;;;15.88;;
65328;SDS011;51941;52.210;5.158;2022-11-28T11:10:20;36.08;;;17.70;;
65328;SDS011;51941;52.210;5.158;2022-11-28T11:12:52;38.55;;;19.00;;
65328;SDS011;51941;52.210;5.158;2022-11-28T11:15:29;41.05;;;19.73;;
65328;SDS011;51941;52.210;5.158;2022-11-28T11:18:27;38.30;;;18.77;;
65328;SDS011;51941;52.210;5.158;2022-11-28T11:21:05;34.55;;;16.95;;
65328;SDS011;51941;52.210;5.158;2022-11-28T11:23:34;36.08;;;18.38;;
65328;SDS011;51941;52.210;5.158;2022-11-28T11:26:01;44.75;;;19.60;;
65328;SDS011;51941;52.210;5.158;2022-11-28T11:28:36;38.90;;;18.67;;
65328;SDS011;51941;52.210;5.158;2022-11-28T11:31:13;35.53;;;18.30;;
65328;SDS011;51941;52.210;5.158;2022-11-28T11:33:43;42.53;;;19.42;;
65328;SDS011;51941;52.210;5.158;2022-11-28T11:36:25;41.30;;;19.63;;
65328;SDS011;51941;52.210;5.158;2022-11-28T11:41:45;44.22;;;20.35;;
65328;SDS011;51941;52.210;5.158;2022-11-28T11:44:25;40.58;;;19.50;;
65328;SDS011;51941;52.210;5.158;2022-11-28T11:46:59;35.97;;;17.92;;
65328;SDS011;51941;52.210;5.158;2022-11-28T11:52:13;38.28;;;18.33;;
65328;SDS011;51941;52.210;5.158;2022-11-28T11:54:58;43.88;;;20.95;;
65328;SDS011;51941;52.210;5.158;2022-11-28T11:57:31;38.72;;;18.67;;
65328;SDS011;51941;52.210;5.158;2022-11-28T12:00:03;35.55;;;18.30;;
65328;SDS011;51941;52.210;5.158;2022-11-28T12:02:38;40.75;;;20.20;;
65328;SDS011;51941;52.210;5.158;2022-11-28T12:05:09;34.60;;;17.50;;
65328;SDS011;51941;52.210;5.158;2022-11-28T12:10:10;31.35;;;15.90;;
65328;SDS011;51941;52.210;5.158;2022-11-28T12:12:39;32.85;;;16.73;;
65328;SDS011;51941;52.210;5.158;2022-11-28T12:15:12;35.30;;;17.77;;
65328;SDS011;51941;52.210;5.158;2022-11-28T12:17:44;35.75;;;17.70;;
65328;SDS011;51941;52.210;5.158;2022-11-28T12:20:29;35.22;;;18.40;;
65328;SDS011;51941;52.210;5.158;2022-11-28T12:23:06;31.17;;;17.02;;
65328;SDS011;51941;52.210;5.158;2022-11-28T12:25:47;30.38;;;16.42;;
65328;SDS011;51941;52.210;5.158;2022-11-28T12:28:23;26.58;;;15.45;;
65328;SDS011;51941;52.210;5.158;2022-11-28T12:31:04;30.10;;;16.65;;
65328;SDS011;51941;52.210;5.158;2022-11-28T12:33:39;43.88;;;20.15;;
65328;SDS011;51941;52.210;5.158;2022-11-28T12:36:18;36.53;;;17.40;;
65328;SDS011;51941;52.210;5.158;2022-11-28T12:38:59;32.92;;;17.92;;
65328;SDS011;51941;52.210;5.158;2022-11-28T12:41:45;29.15;;;16.73;;
65328;SDS011;51941;52.210;5.158;2022-11-28T12:44:32;30.70;;;17.05;;
65328;SDS011;51941;52.210;5.158;2022-11-28T12:47:15;32.95;;;17.25;;
65328;SDS011;51941;52.210;5.158;2022-11-28T12:49:54;29.52;;;16.55;;
65328;SDS011;51941;52.210;5.158;2022-11-28T12:52:28;37.67;;;19.80;;
65328;SDS011;51941;52.210;5.158;2022-11-28T12:55:10;33.35;;;18.05;;
65328;SDS011;51941;52.210;5.158;2022-11-28T12:57:47;34.00;;;18.92;;
65328;SDS011;51941;52.210;5.158;2022-11-28T13:00:21;31.70;;;16.98;;
65328;SDS011;51941;52.210;5.158;2022-11-28T13:03:02;31.88;;;18.02;;
65328;SDS011;51941;52.210;5.158;2022-11-28T13:05:40;35.33;;;18.08;;
65328;SDS011;51941;52.210;5.158;2022-11-28T13:08:20;33.85;;;17.48;;
65328;SDS011;51941;52.210;5.158;2022-11-28T13:11:02;30.52;;;18.25;;
65328;SDS011;51941;52.210;5.158;2022-11-28T13:13:38;34.42;;;18.25;;
65328;SDS011;51941;52.210;5.158;2022-11-28T13:16:14;35.05;;;17.67;;
65328;SDS011;51941;52.210;5.158;2022-11-28T13:18:51;31.67;;;17.85;;
65328;SDS011;51941;52.210;5.158;2022-11-28T13:21:26;31.00;;;16.70;;
65328;SDS011;51941;52.210;5.158;2022-11-28T13:24:02;26.58;;;16.00;;
65328;SDS011;51941;52.210;5.158;2022-11-28T13:26:36;28.08;;;16.20;;
65328;SDS011;51941;52.210;5.158;2022-11-28T13:29:13;26.50;;;15.48;;
65328;SDS011;51941;52.210;5.158;2022-11-28T13:31:49;28.83;;;15.55;;
65328;SDS011;51941;52.210;5.158;2022-11-28T13:34:21;28.00;;;16.38;;
65328;SDS011;51941;52.210;5.158;2022-11-28T13:36:51;23.10;;;13.77;;
65328;SDS011;51941;52.210;5.158;2022-11-28T13:39:25;29.30;;;15.20;;
65328;SDS011;51941;52.210;5.158;2022-11-28T13:42:01;27.17;;;14.35;;
65328;SDS011;51941;52.210;5.158;2022-11-28T13:44:43;23.02;;;12.90;;
65328;SDS011;51941;52.210;5.158;2022-11-28T13:47:24;32.67;;;16.83;;
65328;SDS011;51941;52.210;5.158;2022-11-28T13:53:00;28.48;;;15.95;;
65328;SDS011;51941;52.210;5.158;2022-11-28T13:55:44;25.90;;;15.15;;
65328;SDS011;51941;52.210;5.158;2022-11-28T13:58:16;27.02;;;14.40;;
65328;SDS011;51941;52.210;5.158;2022-11-28T14:00:57;27.90;;;15.95;;
65328;SDS011;51941;52.210;5.158;2022-11-28T14:03:31;25.45;;;15.07;;
65328;SDS011;51941;52.210;5.158;2022-11-28T14:06:01;25.55;;;14.95;;
65328;SDS011;51941;52.210;5.158;2022-11-28T14:08:31;25.15;;;15.05;;
65328;SDS011;51941;52.210;5.158;2022-11-28T14:11:04;27.30;;;16.25;;
65328;SDS011;51941;52.210;5.158;2022-11-28T14:13:47;34.75;;;18.05;;
65328;SDS011;51941;52.210;5.158;2022-11-28T14:16:29;30.35;;;17.52;;
65328;SDS011;51941;52.210;5.158;2022-11-28T14:19:11;29.65;;;16.00;;
65328;SDS011;51941;52.210;5.158;2022-11-28T14:21:54;26.63;;;15.48;;
65328;SDS011;51941;52.210;5.158;2022-11-28T14:24:47;26.77;;;14.85;;
65328;SDS011;51941;52.210;5.158;2022-11-28T14:27:21;24.33;;;14.35;;
65328;SDS011;51941;52.210;5.158;2022-11-28T14:29:52;28.52;;;16.85;;
65328;SDS011;51941;52.210;5.158;2022-11-28T14:34:58;24.02;;;13.85;;
65328;SDS011;51941;52.210;5.158;2022-11-28T14:37:48;30.80;;;16.40;;
65328;SDS011;51941;52.210;5.158;2022-11-28T14:43:30;26.42;;;14.30;;
65328;SDS011;51941;52.210;5.158;2022-11-28T14:54:44;26.95;;;15.27;;
65328;SDS011;51941;52.210;5.158;2022-11-28T15:02:18;25.50;;;14.88;;
65328;SDS011;51941;52.210;5.158;2022-11-28T15:05:01;24.83;;;14.73;;
65328;SDS011;51941;52.210;5.158;2022-11-28T15:07:43;26.10;;;15.27;;
65328;SDS011;51941;52.210;5.158;2022-11-28T15:10:22;27.88;;;14.55;;
65328;SDS011;51941;52.210;5.158;2022-11-28T15:12:59;27.58;;;14.95;;
65328;SDS011;51941;52.210;5.158;2022-11-28T15:15:39;27.65;;;14.95;;
65328;SDS011;51941;52.210;5.158;2022-11-28T15:18:12;28.02;;;16.08;;
65328;SDS011;51941;52.210;5.158;2022-11-28T15:20:41;27.75;;;15.40;;
65328;SDS011;51941;52.210;5.158;2022-11-28T15:23:20;31.02;;;16.25;;
65328;SDS011;51941;52.210;5.158;2022-11-28T15:25:52;33.13;;;17.13;;
65328;SDS011;51941;52.210;5.158;2022-11-28T15:28:20;28.20;;;16.17;;
65328;SDS011;51941;52.210;5.158;2022-11-28T15:30:51;27.13;;;15.27;;
65328;SDS011;51941;52.210;5.158;2022-11-28T15:33:18;27.20;;;14.85;;
65328;SDS011;51941;52.210;5.158;2022-11-28T15:35:54;28.10;;;15.77;;
65328;SDS011;51941;52.210;5.158;2022-11-28T15:38:23;34.67;;;16.92;;
65328;SDS011;51941;52.210;5.158;2022-11-28T15:40:54;27.67;;;15.20;;
65328;SDS011;51941;52.210;5.158;2022-11-28T15:43:21;30.83;;;16.17;;
65328;SDS011;51941;52.210;5.158;2022-11-28T15:45:49;27.65;;;15.38;;